Time;durP1;ratioP1;P1;durP2;ratioP2;P2;SDS_P1;SDS_P2;PMS_P1;PMS_P2;Temp;Humidity;BMP_temperature;BMP_pressure;BME280_temperature;BME280_humidity;BME280_pressure;Samples;Min_cycle;Max_cycle;Signal;HPM_P1;HPM_P2
2023/10/22 00:01:13;;;;;;;;;;;;;;;;;;5070163;28;19921;-60
2023/10/22 00:03:39;;;;;;;;;;;;;;;;;;5052265;28;19921;-60
2023/10/22 00:06:05;;;;;;;;;;;;;;;;;;5034079;28;20342;-61
2023/10/22 00:08:31;;;;;;;;;;;;;;;;;;5052201;28;19928;-60
2023/10/22 00:10:57;;;;;;;;;;;;;;;;;;5051940;28;19972;-61
2023/10/22 00:13:23;;;;;;;;;;;;;;;;;;5052012;28;19974;-60
2023/10/22 00:15:49;;;;;;;;;;;;;;;;;;5051857;28;19966;-60
2023/10/22 00:18:15;;;;;;;;;;;;;;;;;;5065906;28;19931;-60
2023/10/22 00:20:41;;;;;;;;;;;;;;;;;;5072127;28;19924;-59
2023/10/22 00:23:07;;;;;;;;;;;;;;;;;;5071990;28;20473;-60
2023/10/22 00:25:33;;;;;;;;;;;;;;;;;;5037224;28;19925;-60
2023/10/22 00:27:59;;;;;;;;;;;;;;;;;;5053811;28;19928;-60
2023/10/22 00:30:25;;;;;;;;;;;;;;;;;;5071855;28;20429;-60
2023/10/22 00:32:51;;;;;;;;;;;;;;;;;;5071737;28;19924;-60
2023/10/22 00:35:17;;;;;;;;;;;;;;;;;;5071858;28;19924;-60
2023/10/22 00:37:43;;;;;;;;;;;;;;;;;;5071888;28;19951;-60
2023/10/22 00:40:09;;;;;;;;;;;;;;;;;;5055347;28;19959;-60
2023/10/22 00:42:35;;;;;;;;;;;;;;;;;;5075858;28;19962;-60
2023/10/22 00:45:02;;;;;;;;;;;;;;;;;;5076064;28;20011;-60
2023/10/22 00:47:29;;;;;;;;;;;;;;;;;;5075793;28;19925;-60
2023/10/22 00:49:54;;;;;;;;;;;;;;;;;;5075988;28;20012;-60
2023/10/22 00:52:20;;;;;;;;;;;;;;;;;;5077975;28;20007;-60
2023/10/22 00:54:46;;;;;;;;;;;;;;;;;;5095685;28;20408;-60
2023/10/22 00:57:12;;;;;;;;;;;;;;;;;;5095952;28;19930;-61
2023/10/22 00:59:38;;;;;;;;;;;;;;;;;;5095919;28;19923;-61
2023/10/22 01:02:04;;;;;;;;;;;;;;;;;;5095687;28;20358;-61
2023/10/22 01:04:30;;;;;;;;;;;;;;;;;;5095921;28;19920;-61
2023/10/22 01:06:56;;;;;;;;;;;;;;;;;;5095836;28;19928;-60
2023/10/22 01:09:22;;;;;;;;;;;;;;;;;;5095779;28;19924;-61
2023/10/22 01:11:48;;;;;;;;;;;;;;;;;;5077220;28;19982;-61
2023/10/22 01:14:14;;;;;;;;;;;;;;;;;;5077251;28;19920;-61
2023/10/22 01:16:40;;;;;;;;;;;;;;;;;;5076017;28;19924;-61
2023/10/22 01:19:06;;;;;;;;;;;;;;;;;;5075442;28;19927;-61
2023/10/22 01:21:32;;;;;;;;;;;;;;;;;;5075236;28;19920;-61
2023/10/22 01:23:57;;;;;;;;;;;;;;;;;;5075083;28;20046;-61
2023/10/22 01:26:24;;;;;;;;;;;;;;;;;;5057158;28;19925;-61
2023/10/22 01:28:49;;;;;;;;;;;;;;;;;;5074873;28;19978;-61
2023/10/22 01:31:16;;;;;;;;;;;;;;;;;;5056876;28;19920;-61
2023/10/22 01:33:42;;;;;;;;;;;;;;;;;;5074713;28;20293;-61
2023/10/22 01:36:08;;;;;;;;;;;;;;;;;;5074977;28;19925;-61
2023/10/22 01:38:34;;;;;;;;;;;;;;;;;;5074918;28;19974;-61
2023/10/22 01:41:00;;;;;;;;;;;;;;;;;;5040104;28;20334;-61
2023/10/22 01:43:25;;;;;;;;;;;;;;;;;;5074691;28;19930;-61
2023/10/22 01:45:51;;;;;;;;;;;;;;;;;;5074924;28;19920;-61
2023/10/22 01:48:17;;;;;;;;;;;;;;;;;;5074641;28;20289;-61
2023/10/22 01:50:43;;;;;;;;;;;;;;;;;;5074748;28;19927;-61
2023/10/22 01:53:09;;;;;;;;;;;;;;;;;;5083522;28;20014;-61
2023/10/22 01:55:35;;;;;;;;;;;;;;;;;;5094665;28;19924;-61
2023/10/22 01:58:01;;;;;;;;;;;;;;;;;;5076411;28;20488;-61
2023/10/22 02:00:27;;;;;;;;;;;;;;;;;;5076254;28;19924;-59
2023/10/22 02:02:53;;;;;;;;;;;;;;;;;;5076345;28;19924;-60
2023/10/22 02:05:19;;;;;;;;;;;;;;;;;;5094688;28;20010;-61
2023/10/22 02:07:45;;;;;;;;;;;;;;;;;;5094632;28;19924;-60
2023/10/22 02:10:11;;;;;;;;;;;;;;;;;;5094431;28;20281;-60
2023/10/22 02:12:37;;;;;;;;;;;;;;;;;;5076451;28;19928;-60
2023/10/22 02:15:03;;;;;;;;;;;;;;;;;;5094317;28;20365;-60
2023/10/22 02:17:29;;;;;;;;;;;;;;;;;;5086607;28;19920;-60
2023/10/22 02:19:54;;;;;;;;;;;;;;;;;;5074236;28;19931;-60
2023/10/22 02:22:20;;;;;;;;;;;;;;;;;;5056008;28;20001;-60
2023/10/22 02:24:46;;;;;;;;;;;;;;;;;;5073896;28;20340;-60
2023/10/22 02:27:12;;;;;;;;;;;;;;;;;;5073993;28;20397;-60
2023/10/22 02:29:38;;;;;;;;;;;;;;;;;;5055712;28;19928;-60
2023/10/22 02:32:04;;;;;;;;;;;;;;;;;;5074177;28;19982;-60
2023/10/22 02:34:30;;;;;;;;;;;;;;;;;;5073823;28;19921;-60
2023/10/22 02:36:56;;;;;;;;;;;;;;;;;;5055662;28;19990;-61
2023/10/22 02:39:22;;;;;;;;;;;;;;;;;;5073798;28;19930;-61
2023/10/22 02:41:48;;;;;;;;;;;;;;;;;;5073650;28;19924;-61
2023/10/22 02:44:14;;;;;;;;;;;;;;;;;;5073645;28;20277;-61
2023/10/22 02:46:39;;;;;;;;;;;;;;;;;;5073724;28;19921;-61
2023/10/22 02:49:07;;;;;;;;;;;;;;;;;;5073559;28;19928;-61
2023/10/22 02:51:33;;;;;;;;;;;;;;;;;;5073525;28;19924;-61
2023/10/22 02:53:59;;;;;;;;;;;;;;;;;;5089061;28;19990;-61
2023/10/22 02:56:24;;;;;;;;;;;;;;;;;;5075435;28;19924;-61
2023/10/22 02:58:50;;;;;;;;;;;;;;;;;;5093650;28;20529;-61
2023/10/22 03:01:17;;;;;;;;;;;;;;;;;;5093614;28;19977;-61
2023/10/22 03:03:43;;;;;;;;;;;;;;;;;;5074603;28;19924;-61
2023/10/22 03:06:09;;;;;;;;;;;;;;;;;;5093406;28;20327;-61
2023/10/22 03:11:04;;;;;;;;;;;;;;;;;;5073005;28;19932;-65
2023/10/22 03:13:30;;;;;;;;;;;;;;;;;;5072684;28;19953;-65
2023/10/22 03:15:58;;;;;;;;;;;;;;;;;;5072417;28;19920;-65
2023/10/22 03:18:23;;;;;;;;;;;;;;;;;;5087999;28;19927;-65
2023/10/22 03:20:52;;;;;;;;;;;;;;;;;;5093172;28;20397;-64
2023/10/22 03:23:18;;;;;;;;;;;;;;;;;;5092370;28;19971;-64
2023/10/22 03:25:45;;;;;;;;;;;;;;;;;;5092183;28;20120;-65
2023/10/22 03:28:10;;;;;;;;;;;;;;;;;;5072364;28;19968;-64
2023/10/22 03:30:37;;;;;;;;;;;;;;;;;;5070783;28;20025;-64
2023/10/22 03:33:03;;;;;;;;;;;;;;;;;;5072038;28;19951;-65
2023/10/22 03:35:29;;;;;;;;;;;;;;;;;;5070292;28;20292;-66
2023/10/22 03:37:55;;;;;;;;;;;;;;;;;;5070501;28;19920;-65
2023/10/22 03:40:21;;;;;;;;;;;;;;;;;;5071588;28;19994;-65
2023/10/22 03:42:50;;;;;;;;;;;;;;;;;;5071936;28;19925;-66
2023/10/22 03:45:16;;;;;;;;;;;;;;;;;;5072325;28;20020;-65
2023/10/22 03:47:42;;;;;;;;;;;;;;;;;;5054640;28;20022;-66
2023/10/22 03:50:08;;;;;;;;;;;;;;;;;;5072469;28;20395;-65
2023/10/22 03:52:34;;;;;;;;;;;;;;;;;;5079093;28;19920;-64
2023/10/22 03:55:00;;;;;;;;;;;;;;;;;;5112981;28;20007;-64
2023/10/22 03:57:25;;;;;;;;;;;;;;;;;;5112790;28;19920;-65
2023/10/22 03:59:51;;;;;;;;;;;;;;;;;;5112784;28;19975;-66
2023/10/22 04:02:17;;;;;;;;;;;;;;;;;;5111410;28;19987;-64
2023/10/22 04:04:43;;;;;;;;;;;;;;;;;;5111190;28;20393;-65
2023/10/22 04:07:10;;;;;;;;;;;;;;;;;;5112830;28;19920;-65
2023/10/22 04:09:36;;;;;;;;;;;;;;;;;;5112378;28;19957;-65
2023/10/22 04:12:02;;;;;;;;;;;;;;;;;;5112823;28;19951;-65
2023/10/22 04:14:28;;;;;;;;;;;;;;;;;;5111894;28;20281;-66
2023/10/22 04:16:54;;;;;;;;;;;;;;;;;;5092744;28;19924;-65
2023/10/22 04:19:20;;;;;;;;;;;;;;;;;;5090734;28;19924;-66
2023/10/22 04:21:46;;;;;;;;;;;;;;;;;;5092006;28;19920;-66
2023/10/22 04:24:11;;;;;;;;;;;;;;;;;;5092275;28;19920;-64
2023/10/22 04:26:37;;;;;;;;;;;;;;;;;;5090694;28;19924;-66
2023/10/22 04:29:03;;;;;;;;;;;;;;;;;;5092078;28;19924;-65
2023/10/22 04:31:29;;;;;;;;;;;;;;;;;;5092147;28;19920;-65
2023/10/22 04:33:55;;;;;;;;;;;;;;;;;;5092094;28;19974;-63
2023/10/22 04:36:21;;;;;;;;;;;;;;;;;;5091855;28;20445;-64
2023/10/22 04:38:50;;;;;;;;;;;;;;;;;;5092221;28;20007;-64
2023/10/22 04:41:16;;;;;;;;;;;;;;;;;;5090765;28;19920;-65
2023/10/22 04:43:42;;;;;;;;;;;;;;;;;;5090824;28;19924;-65
2023/10/22 04:46:08;;;;;;;;;;;;;;;;;;5091939;28;19928;-64
2023/10/22 04:48:34;;;;;;;;;;;;;;;;;;5073546;28;19924;-64
2023/10/22 04:51:00;;;;;;;;;;;;;;;;;;5073687;28;19927;-65
2023/10/22 04:53:26;;;;;;;;;;;;;;;;;;5103126;28;19924;-65
2023/10/22 04:55:52;;;;;;;;;;;;;;;;;;5110774;28;20269;-64
2023/10/22 04:58:18;;;;;;;;;;;;;;;;;;5111006;28;19923;-65
2023/10/22 05:00:44;;;;;;;;;;;;;;;;;;5111911;28;20481;-64
2023/10/22 05:03:10;;;;;;;;;;;;;;;;;;5110727;28;19923;-64
2023/10/22 05:05:36;;;;;;;;;;;;;;;;;;5112062;28;19931;-65
2023/10/22 05:08:02;;;;;;;;;;;;;;;;;;5111859;28;19924;-64
2023/10/22 05:10:27;;;;;;;;;;;;;;;;;;5110493;28;19935;-65
2023/10/22 05:12:53;;;;;;;;;;;;;;;;;;5112187;28;19930;-64
2023/10/22 05:15:20;;;;;;;;;;;;;;;;;;5112192;28;20344;-65
2023/10/22 05:17:47;;;;;;;;;;;;;;;;;;5101778;28;20611;-65
2023/10/22 05:20:13;;;;;;;;;;;;;;;;;;5091737;28;19963;-65
2023/10/22 05:22:38;;;;;;;;;;;;;;;;;;5091607;28;19974;-64
2023/10/22 05:25:05;;;;;;;;;;;;;;;;;;5091462;28;19927;-65
2023/10/22 05:27:31;;;;;;;;;;;;;;;;;;5095099;28;19931;-66
2023/10/22 05:29:57;;;;;;;;;;;;;;;;;;5095465;28;19924;-67
2023/10/22 05:32:23;;;;;;;;;;;;;;;;;;5095253;28;19920;-65
2023/10/22 05:34:48;;;;;;;;;;;;;;;;;;5095150;28;19924;-65
2023/10/22 05:37:15;;;;;;;;;;;;;;;;;;5094942;28;19958;-65
2023/10/22 05:39:41;;;;;;;;;;;;;;;;;;5095306;28;19920;-65
2023/10/22 05:42:07;;;;;;;;;;;;;;;;;;5093849;28;19985;-64
2023/10/22 05:44:33;;;;;;;;;;;;;;;;;;5095176;28;19924;-65
2023/10/22 05:46:59;;;;;;;;;;;;;;;;;;5094820;28;20273;-64
2023/10/22 05:49:25;;;;;;;;;;;;;;;;;;5094988;28;19924;-65
2023/10/22 05:51:51;;;;;;;;;;;;;;;;;;5093664;28;19951;-64
2023/10/22 05:54:17;;;;;;;;;;;;;;;;;;5113366;28;20373;-63
2023/10/22 05:56:43;;;;;;;;;;;;;;;;;;5115253;28;19997;-64
2023/10/22 05:59:09;;;;;;;;;;;;;;;;;;5113743;28;19963;-64
2023/10/22 06:01:38;;;;;;;;;;;;;;;;;;5113647;28;20407;-65
2023/10/22 06:04:04;;;;;;;;;;;;;;;;;;5114925;28;20357;-64
2023/10/22 06:06:30;;;;;;;;;;;;;;;;;;5114826;28;19980;-64
2023/10/22 06:08:56;;;;;;;;;;;;;;;;;;5113392;28;19927;-65
2023/10/22 06:11:22;;;;;;;;;;;;;;;;;;5115061;28;20383;-65
2023/10/22 06:13:48;;;;;;;;;;;;;;;;;;5115037;28;19924;-65
2023/10/22 06:16:14;;;;;;;;;;;;;;;;;;5114772;28;19926;-65
2023/10/22 06:18:39;;;;;;;;;;;;;;;;;;5095364;28;20297;-63
2023/10/22 06:21:05;;;;;;;;;;;;;;;;;;5094505;28;20031;-64
2023/10/22 06:23:31;;;;;;;;;;;;;;;;;;5094267;28;19926;-63
2023/10/22 06:25:57;;;;;;;;;;;;;;;;;;5094270;28;19927;-64
2023/10/22 06:28:23;;;;;;;;;;;;;;;;;;5093922;28;19931;-64
2023/10/22 06:30:49;;;;;;;;;;;;;;;;;;5093867;28;19928;-66
2023/10/22 06:33:15;;;;;;;;;;;;;;;;;;5093945;28;20037;-65
2023/10/22 06:35:41;;;;;;;;;;;;;;;;;;5093566;28;20418;-66
2023/10/22 06:38:07;;;;;;;;;;;;;;;;;;5091592;28;19924;-64
2023/10/22 06:40:33;;;;;;;;;;;;;;;;;;5092481;28;19926;-64
2023/10/22 06:42:59;;;;;;;;;;;;;;;;;;5093645;28;19973;-64
2023/10/22 06:45:25;;;;;;;;;;;;;;;;;;5093699;28;19919;-64
2023/10/22 06:47:51;;;;;;;;;;;;;;;;;;5093696;28;19924;-64
2023/10/22 06:50:16;;;;;;;;;;;;;;;;;;5093246;28;19925;-64
2023/10/22 06:52:42;;;;;;;;;;;;;;;;;;5098828;28;19924;-65
2023/10/22 06:55:08;;;;;;;;;;;;;;;;;;5113984;28;19966;-65
2023/10/22 06:57:34;;;;;;;;;;;;;;;;;;5112435;28;20299;-63
2023/10/22 07:00:00;;;;;;;;;;;;;;;;;;5114105;28;19930;-65
2023/10/22 07:02:26;;;;;;;;;;;;;;;;;;5113866;28;19919;-63
2023/10/22 07:04:52;;;;;;;;;;;;;;;;;;5112498;28;19942;-64
2023/10/22 07:07:18;;;;;;;;;;;;;;;;;;5112361;28;19934;-65
2023/10/22 07:09:44;;;;;;;;;;;;;;;;;;5095004;28;19982;-64
2023/10/22 07:12:09;;;;;;;;;;;;;;;;;;5113670;28;19920;-64
2023/10/22 07:14:35;;;;;;;;;;;;;;;;;;5112087;28;19919;-64
2023/10/22 07:17:01;;;;;;;;;;;;;;;;;;5109696;28;19923;-64
2023/10/22 07:19:27;;;;;;;;;;;;;;;;;;5093235;28;19932;-64
2023/10/22 07:21:53;;;;;;;;;;;;;;;;;;5091631;28;19959;-63
2023/10/22 07:24:19;;;;;;;;;;;;;;;;;;5091533;28;19919;-64
2023/10/22 07:26:45;;;;;;;;;;;;;;;;;;5092900;28;19924;-64
2023/10/22 07:29:12;;;;;;;;;;;;;;;;;;5092908;28;20376;-64
2023/10/22 07:31:37;;;;;;;;;;;;;;;;;;5092834;28;19924;-63
2023/10/22 07:34:03;;;;;;;;;;;;;;;;;;5092856;28;19931;-64
2023/10/22 07:36:29;;;;;;;;;;;;;;;;;;5092844;28;19924;-65
2023/10/22 07:38:55;;;;;;;;;;;;;;;;;;5092799;28;19927;-64
2023/10/22 07:41:22;;;;;;;;;;;;;;;;;;5092732;28;20440;-64
2023/10/22 07:43:48;;;;;;;;;;;;;;;;;;5092472;28;19931;-64
2023/10/22 07:46:17;;;;;;;;;;;;;;;;;;5092568;28;20285;-64
2023/10/22 07:48:44;;;;;;;;;;;;;;;;;;5092435;28;19924;-65
2023/10/22 07:51:10;;;;;;;;;;;;;;;;;;5091466;28;19926;-65
2023/10/22 07:53:36;;;;;;;;;;;;;;;;;;5103777;28;20003;-64
2023/10/22 07:56:02;;;;;;;;;;;;;;;;;;5112925;28;20300;-65
2023/10/22 07:58:28;;;;;;;;;;;;;;;;;;5112923;28;19928;-65
2023/10/22 08:00:54;;;;;;;;;;;;;;;;;;5112681;28;19924;-65
2023/10/22 08:03:20;;;;;;;;;;;;;;;;;;5112548;28;20074;-64
2023/10/22 08:05:46;;;;;;;;;;;;;;;;;;5112705;28;19927;-64
2023/10/22 08:08:12;;;;;;;;;;;;;;;;;;5112911;28;19924;-65
2023/10/22 08:10:38;;;;;;;;;;;;;;;;;;5112259;28;19982;-65
2023/10/22 08:13:04;;;;;;;;;;;;;;;;;;5111441;28;20061;-64
2023/10/22 08:15:30;;;;;;;;;;;;;;;;;;5111154;28;20064;-64
2023/10/22 08:17:55;;;;;;;;;;;;;;;;;;5101059;28;19981;-64
2023/10/22 08:20:21;;;;;;;;;;;;;;;;;;5092116;28;20006;-64
2023/10/22 08:22:47;;;;;;;;;;;;;;;;;;5092154;28;19928;-64
2023/10/22 08:25:13;;;;;;;;;;;;;;;;;;5091743;28;20259;-65
2023/10/22 08:27:39;;;;;;;;;;;;;;;;;;5092144;28;19921;-64
2023/10/22 08:30:05;;;;;;;;;;;;;;;;;;5091784;28;19959;-65
2023/10/22 08:32:31;;;;;;;;;;;;;;;;;;5091908;28;19963;-65
2023/10/22 08:34:57;;;;;;;;;;;;;;;;;;5092067;28;19924;-65
2023/10/22 08:37:23;;;;;;;;;;;;;;;;;;5090499;28;20040;-65
2023/10/22 08:39:49;;;;;;;;;;;;;;;;;;5090430;28;19934;-65
2023/10/22 08:42:19;;;;;;;;;;;;;;;;;;5092089;28;20016;-65
2023/10/22 08:44:45;;;;;;;;;;;;;;;;;;5090361;28;19924;-65
2023/10/22 08:47:11;;;;;;;;;;;;;;;;;;5090781;28;19920;-66
2023/10/22 08:49:37;;;;;;;;;;;;;;;;;;5090239;28;19940;-63
2023/10/22 08:52:03;;;;;;;;;;;;;;;;;;5091587;28;20342;-65
2023/10/22 08:54:29;;;;;;;;;;;;;;;;;;5111484;28;19930;-66
2023/10/22 08:56:54;;;;;;;;;;;;;;;;;;5111691;28;19920;-64
2023/10/22 08:59:20;;;;;;;;;;;;;;;;;;5111560;28;19923;-64
2023/10/22 09:01:46;;;;;;;;;;;;;;;;;;5114205;28;20014;-64
2023/10/22 09:04:12;;;;;;;;;;;;;;;;;;5114015;28;19919;-64
2023/10/22 09:06:38;;;;;;;;;;;;;;;;;;5115210;28;20060;-65
2023/10/22 09:09:04;;;;;;;;;;;;;;;;;;5114063;28;20274;-64
2023/10/22 09:11:30;;;;;;;;;;;;;;;;;;5115556;28;20323;-64
2023/10/22 09:13:56;;;;;;;;;;;;;;;;;;5115272;28;19927;-65
2023/10/22 09:16:22;;;;;;;;;;;;;;;;;;5115095;28;20078;-65
2023/10/22 09:18:48;;;;;;;;;;;;;;;;;;5096148;28;20364;-66
2023/10/22 09:21:13;;;;;;;;;;;;;;;;;;5094507;28;19926;-66
2023/10/22 09:23:39;;;;;;;;;;;;;;;;;;5092991;28;19926;-66
2023/10/22 09:26:07;;;;;;;;;;;;;;;;;;5093011;28;19928;-66
2023/10/22 09:28:33;;;;;;;;;;;;;;;;;;5094177;28;20389;-65
2023/10/22 09:30:59;;;;;;;;;;;;;;;;;;5094354;28;19970;-64
2023/10/22 09:33:25;;;;;;;;;;;;;;;;;;5094517;28;19920;-66
2023/10/22 09:35:51;;;;;;;;;;;;;;;;;;5075794;28;19927;-65
2023/10/22 09:38:17;;;;;;;;;;;;;;;;;;5076162;28;19955;-66
2023/10/22 09:40:43;;;;;;;;;;;;;;;;;;5092962;28;20304;-64
2023/10/22 09:43:09;;;;;;;;;;;;;;;;;;5093966;28;19920;-65
2023/10/22 09:45:35;;;;;;;;;;;;;;;;;;5094288;28;19994;-65
2023/10/22 09:48:01;;;;;;;;;;;;;;;;;;5094031;28;19932;-65
2023/10/22 09:50:26;;;;;;;;;;;;;;;;;;5094082;28;19924;-65
2023/10/22 09:52:52;;;;;;;;;;;;;;;;;;5100379;28;20471;-65
2023/10/22 09:55:19;;;;;;;;;;;;;;;;;;5114099;28;19931;-64
2023/10/22 09:57:45;;;;;;;;;;;;;;;;;;5114420;28;19919;-65
2023/10/22 10:00:12;;;;;;;;;;;;;;;;;;5114339;28;19931;-65
2023/10/22 10:02:38;;;;;;;;;;;;;;;;;;5112657;28;19923;-65
2023/10/22 10:05:04;;;;;;;;;;;;;;;;;;5114121;28;19924;-64
2023/10/22 10:07:30;;;;;;;;;;;;;;;;;;5114131;28;19920;-66
2023/10/22 10:09:56;;;;;;;;;;;;;;;;;;5112551;28;19998;-65
2023/10/22 10:12:24;;;;;;;;;;;;;;;;;;5112511;28;19923;-66
2023/10/22 10:14:51;;;;;;;;;;;;;;;;;;5114260;27;19930;-64
2023/10/22 10:17:17;;;;;;;;;;;;;;;;;;5106618;28;19920;-64
2023/10/22 10:19:43;;;;;;;;;;;;;;;;;;5093708;28;19971;-65
2023/10/22 10:22:09;;;;;;;;;;;;;;;;;;5093474;28;19966;-65
2023/10/22 10:24:35;;;;;;;;;;;;;;;;;;5093597;28;20037;-65
2023/10/22 10:27:01;;;;;;;;;;;;;;;;;;5092037;28;19920;-65
2023/10/22 10:29:27;;;;;;;;;;;;;;;;;;5092056;28;20006;-64
2023/10/22 10:31:53;;;;;;;;;;;;;;;;;;5092162;28;19970;-64
2023/10/22 10:34:19;;;;;;;;;;;;;;;;;;5091905;28;19920;-65
2023/10/22 10:36:44;;;;;;;;;;;;;;;;;;5091783;28;19920;-65
2023/10/22 10:39:10;;;;;;;;;;;;;;;;;;5093080;28;20532;-65
2023/10/22 10:41:36;;;;;;;;;;;;;;;;;;5093369;28;19924;-64
2023/10/22 10:44:02;;;;;;;;;;;;;;;;;;5093772;28;19927;-64
2023/10/22 10:46:28;;;;;;;;;;;;;;;;;;5094019;28;19924;-64
2023/10/22 10:48:54;;;;;;;;;;;;;;;;;;5094397;28;19924;-64
2023/10/22 10:51:20;;;;;;;;;;;;;;;;;;5094436;28;19954;-65
2023/10/22 10:53:46;;;;;;;;;;;;;;;;;;5093960;28;19959;-64
2023/10/22 10:56:12;;;;;;;;;;;;;;;;;;5092508;28;19954;-64
2023/10/22 10:58:38;;;;;;;;;;;;;;;;;;5092741;28;20107;-64
2023/10/22 11:01:04;;;;;;;;;;;;;;;;;;5093612;28;20044;-64
2023/10/22 11:03:30;;;;;;;;;;;;;;;;;;5093398;28;19920;-64
2023/10/22 11:05:56;;;;;;;;;;;;;;;;;;5093541;28;19920;-65
2023/10/22 11:08:22;;;;;;;;;;;;;;;;;;5093711;28;19979;-64
2023/10/22 11:10:48;;;;;;;;;;;;;;;;;;5092280;28;20019;-64
2023/10/22 11:13:14;;;;;;;;;;;;;;;;;;5075814;28;19963;-64
2023/10/22 11:15:40;;;;;;;;;;;;;;;;;;5094145;28;19965;-64
2023/10/22 11:18:06;;;;;;;;;;;;;;;;;;5092133;28;20019;-64
2023/10/22 11:20:32;;;;;;;;;;;;;;;;;;5075513;28;20014;-64
2023/10/22 11:22:58;;;;;;;;;;;;;;;;;;5093484;28;19924;-64
2023/10/22 11:25:24;;;;;;;;;;;;;;;;;;5093392;28;19946;-64
2023/10/22 11:27:50;;;;;;;;;;;;;;;;;;5092728;28;19927;-64
2023/10/22 11:30:16;;;;;;;;;;;;;;;;;;5092718;28;19927;-64
2023/10/22 11:32:42;;;;;;;;;;;;;;;;;;5094247;28;19927;-64
2023/10/22 11:35:08;;;;;;;;;;;;;;;;;;5092768;28;19927;-64
2023/10/22 11:37:37;;;;;;;;;;;;;;;;;;5093694;28;19928;-64
2023/10/22 11:40:03;;;;;;;;;;;;;;;;;;5075454;28;20019;-64
2023/10/22 11:42:29;;;;;;;;;;;;;;;;;;5094105;28;19928;-63
2023/10/22 11:44:54;;;;;;;;;;;;;;;;;;5093961;28;19920;-65
2023/10/22 11:47:24;;;;;;;;;;;;;;;;;;5093113;28;20396;-64
2023/10/22 11:49:50;;;;;;;;;;;;;;;;;;5092375;28;19967;-63
2023/10/22 11:52:16;;;;;;;;;;;;;;;;;;5093805;28;19959;-64
2023/10/22 11:54:42;;;;;;;;;;;;;;;;;;5093663;28;20341;-65
2023/10/22 11:57:08;;;;;;;;;;;;;;;;;;5093738;28;19924;-63
2023/10/22 11:59:34;;;;;;;;;;;;;;;;;;5093309;28;20270;-63
2023/10/22 12:02:00;;;;;;;;;;;;;;;;;;5093827;28;19920;-64
2023/10/22 12:04:26;;;;;;;;;;;;;;;;;;5093474;28;19927;-64
2023/10/22 12:06:52;;;;;;;;;;;;;;;;;;5093435;28;20021;-64
2023/10/22 12:09:18;;;;;;;;;;;;;;;;;;5093279;28;19932;-64
2023/10/22 12:11:44;;;;;;;;;;;;;;;;;;5091928;28;19920;-64
2023/10/22 12:14:10;;;;;;;;;;;;;;;;;;5092034;28;19927;-64
2023/10/22 12:16:36;;;;;;;;;;;;;;;;;;5078578;28;20408;-64
2023/10/22 12:19:02;;;;;;;;;;;;;;;;;;5093223;28;20443;-64
2023/10/22 12:21:28;;;;;;;;;;;;;;;;;;5093322;28;19924;-65
2023/10/22 12:23:54;;;;;;;;;;;;;;;;;;5091834;28;20412;-65
2023/10/22 12:26:20;;;;;;;;;;;;;;;;;;5091599;28;19920;-65
2023/10/22 12:28:45;;;;;;;;;;;;;;;;;;5092999;28;19928;-64
2023/10/22 12:31:11;;;;;;;;;;;;;;;;;;5091078;28;20293;-65
2023/10/22 12:33:38;;;;;;;;;;;;;;;;;;5092120;28;19920;-64
2023/10/22 12:36:04;;;;;;;;;;;;;;;;;;5091400;28;19924;-65
2023/10/22 12:38:30;;;;;;;;;;;;;;;;;;5092338;28;20015;-65
2023/10/22 12:40:56;;;;;;;;;;;;;;;;;;5092131;28;19950;-65
2023/10/22 12:43:21;;;;;;;;;;;;;;;;;;5092346;28;19924;-65
2023/10/22 12:45:47;;;;;;;;;;;;;;;;;;5091844;28;20288;-65
2023/10/22 12:48:13;;;;;;;;;;;;;;;;;;5090455;28;19959;-65
2023/10/22 12:50:39;;;;;;;;;;;;;;;;;;5090733;28;19931;-65
2023/10/22 12:53:07;;;;;;;;;;;;;;;;;;5098967;28;19920;-65
2023/10/22 12:55:33;;;;;;;;;;;;;;;;;;5112543;28;20296;-64
2023/10/22 12:57:59;;;;;;;;;;;;;;;;;;5112614;28;19923;-64
2023/10/22 13:00:24;;;;;;;;;;;;;;;;;;5110877;28;19930;-64
2023/10/22 13:02:50;;;;;;;;;;;;;;;;;;5111111;28;19920;-65
2023/10/22 13:05:17;;;;;;;;;;;;;;;;;;5112467;28;19927;-64
2023/10/22 13:07:43;;;;;;;;;;;;;;;;;;5112651;28;19920;-64
2023/10/22 13:10:09;;;;;;;;;;;;;;;;;;5112022;28;20296;-65
2023/10/22 13:12:35;;;;;;;;;;;;;;;;;;5111194;28;20302;-65
2023/10/22 13:15:01;;;;;;;;;;;;;;;;;;5111381;28;19927;-65
2023/10/22 13:17:28;;;;;;;;;;;;;;;;;;5104874;28;19924;-65
2023/10/22 13:19:53;;;;;;;;;;;;;;;;;;5092153;28;19920;-65
2023/10/22 13:22:19;;;;;;;;;;;;;;;;;;5073807;28;19927;-65
2023/10/22 13:24:45;;;;;;;;;;;;;;;;;;5090904;28;19920;-65
2023/10/22 13:27:11;;;;;;;;;;;;;;;;;;5092237;28;19920;-65
2023/10/22 13:29:37;;;;;;;;;;;;;;;;;;5090536;28;19925;-65
2023/10/22 13:32:03;;;;;;;;;;;;;;;;;;5092010;28;19931;-65
2023/10/22 13:34:29;;;;;;;;;;;;;;;;;;5092149;28;19924;-64
2023/10/22 13:36:55;;;;;;;;;;;;;;;;;;5091875;28;19920;-64
2023/10/22 13:39:21;;;;;;;;;;;;;;;;;;5091888;28;20589;-64
2023/10/22 13:41:47;;;;;;;;;;;;;;;;;;5092025;28;20007;-64
2023/10/22 13:44:14;;;;;;;;;;;;;;;;;;5090441;28;20262;-64
2023/10/22 13:46:40;;;;;;;;;;;;;;;;;;5091218;28;19927;-64
2023/10/22 13:49:06;;;;;;;;;;;;;;;;;;5093967;28;19924;-64
2023/10/22 13:51:32;;;;;;;;;;;;;;;;;;5093862;28;19931;-64
2023/10/22 13:53:58;;;;;;;;;;;;;;;;;;5110897;28;20385;-64
2023/10/22 13:56:24;;;;;;;;;;;;;;;;;;5115806;28;19931;-64
2023/10/22 13:58:50;;;;;;;;;;;;;;;;;;5114214;28;20318;-64
2023/10/22 14:01:16;;;;;;;;;;;;;;;;;;5113893;28;19969;-64
2023/10/22 14:03:42;;;;;;;;;;;;;;;;;;5114431;28;20373;-65
2023/10/22 14:06:08;;;;;;;;;;;;;;;;;;5115374;28;19977;-65
2023/10/22 14:08:34;;;;;;;;;;;;;;;;;;5115643;28;19971;-65
2023/10/22 14:11:00;;;;;;;;;;;;;;;;;;5096808;28;19930;-65
2023/10/22 14:13:25;;;;;;;;;;;;;;;;;;5096891;28;19920;-65
2023/10/22 14:15:51;;;;;;;;;;;;;;;;;;5113890;28;19949;-65
2023/10/22 14:18:17;;;;;;;;;;;;;;;;;;5100670;28;19999;-65
2023/10/22 14:20:45;;;;;;;;;;;;;;;;;;5094754;28;19919;-65
2023/10/22 14:23:10;;;;;;;;;;;;;;;;;;5093516;28;19945;-64
2023/10/22 14:25:36;;;;;;;;;;;;;;;;;;5094458;28;19920;-65
2023/10/22 14:28:03;;;;;;;;;;;;;;;;;;5094771;28;19928;-65
2023/10/22 14:30:29;;;;;;;;;;;;;;;;;;5094546;28;19920;-65
2023/10/22 14:32:55;;;;;;;;;;;;;;;;;;5093123;28;19927;-64
2023/10/22 14:35:21;;;;;;;;;;;;;;;;;;5094654;28;19928;-64
2023/10/22 14:37:48;;;;;;;;;;;;;;;;;;5094687;28;19973;-64
2023/10/22 14:40:14;;;;;;;;;;;;;;;;;;5093402;28;19944;-64
2023/10/22 14:42:39;;;;;;;;;;;;;;;;;;5093423;28;19928;-65
2023/10/22 14:45:05;;;;;;;;;;;;;;;;;;5092986;28;19927;-65
2023/10/22 14:47:31;;;;;;;;;;;;;;;;;;5094313;28;19942;-64
2023/10/22 14:49:57;;;;;;;;;;;;;;;;;;5092894;28;20296;-64
2023/10/22 14:52:23;;;;;;;;;;;;;;;;;;5095296;28;19926;-65
2023/10/22 14:54:49;;;;;;;;;;;;;;;;;;5114827;28;19924;-65
2023/10/22 14:57:16;;;;;;;;;;;;;;;;;;5113349;28;19922;-65
2023/10/22 14:59:42;;;;;;;;;;;;;;;;;;5113924;28;20038;-65
2023/10/22 15:02:09;;;;;;;;;;;;;;;;;;5114473;28;20055;-65
2023/10/22 15:04:36;;;;;;;;;;;;;;;;;;5114634;28;19923;-65
2023/10/22 15:07:01;;;;;;;;;;;;;;;;;;5114203;28;19998;-65
2023/10/22 15:09:27;;;;;;;;;;;;;;;;;;5112578;28;20361;-65
2023/10/22 15:11:53;;;;;;;;;;;;;;;;;;5095813;28;19920;-65
2023/10/22 15:14:19;;;;;;;;;;;;;;;;;;5114205;28;19924;-65
2023/10/22 15:16:45;;;;;;;;;;;;;;;;;;5112435;28;20342;-65
2023/10/22 15:19:11;;;;;;;;;;;;;;;;;;5092235;28;19927;-65
2023/10/22 15:21:38;;;;;;;;;;;;;;;;;;5093400;28;20376;-65
2023/10/22 15:24:04;;;;;;;;;;;;;;;;;;5095757;22;19942;-59
2023/10/22 15:26:30;;;;;;;;;;;;;;;;;;5033688;28;19921;-59
2023/10/22 15:28:56;;;;;;;;;;;;;;;;;;5033150;28;20279;-59
2023/10/22 15:31:22;;;;;;;;;;;;;;;;;;5032557;28;20362;-59
2023/10/22 15:33:48;;;;;;;;;;;;;;;;;;5033172;28;20401;-59
2023/10/22 15:36:15;;;;;;;;;;;;;;;;;;5032650;28;20444;-60
2023/10/22 15:38:41;;;;;;;;;;;;;;;;;;5032813;28;19921;-60
2023/10/22 15:41:07;;;;;;;;;;;;;;;;;;5033139;28;19935;-60
2023/10/22 15:43:33;;;;;;;;;;;;;;;;;;5032367;28;20313;-59
2023/10/22 15:45:59;;;;;;;;;;;;;;;;;;5032664;28;19921;-60
2023/10/22 15:48:30;;;;;;;;;;;;;;;;;;5032369;28;19932;-60
2023/10/22 15:50:56;;;;;;;;;;;;;;;;;;5032569;28;19921;-60
2023/10/22 15:53:22;;;;;;;;;;;;;;;;;;5053188;28;20023;-60
2023/10/22 15:55:48;;;;;;;;;;;;;;;;;;5072445;28;19931;-59
2023/10/22 15:58:14;;;;;;;;;;;;;;;;;;5065097;28;19927;-59
2023/10/22 16:00:40;;;;;;;;;;;;;;;;;;5032483;28;20278;-59
2023/10/22 16:03:05;;;;;;;;;;;;;;;;;;5014267;28;19921;-59
2023/10/22 16:05:31;;;;;;;;;;;;;;;;;;5014476;28;20347;-59
2023/10/22 16:07:57;;;;;;;;;;;;;;;;;;5014153;28;19949;-59
2023/10/22 16:10:25;;;;;;;;;;;;;;;;;;5014192;28;19921;-60
2023/10/22 16:12:51;;;;;;;;;;;;;;;;;;5032171;28;19928;-60
2023/10/22 16:15:18;;;;;;;;;;;;;;;;;;5031888;28;19925;-59
2023/10/22 16:17:44;;;;;;;;;;;;;;;;;;5041453;28;19925;-60
2023/10/22 16:20:10;;;;;;;;;;;;;;;;;;5051579;28;19977;-60
2023/10/22 16:22:36;;;;;;;;;;;;;;;;;;5050971;28;19921;-60
2023/10/22 16:25:02;;;;;;;;;;;;;;;;;;5051007;28;19933;-60
2023/10/22 16:27:28;;;;;;;;;;;;;;;;;;5033309;28;20364;-60
2023/10/22 16:29:54;;;;;;;;;;;;;;;;;;5050967;28;19928;-60
2023/10/22 16:32:20;;;;;;;;;;;;;;;;;;5047981;28;20024;-60
2023/10/22 16:34:46;;;;;;;;;;;;;;;;;;5030862;28;20339;-60
2023/10/22 16:37:12;;;;;;;;;;;;;;;;;;5012965;28;19921;-60
2023/10/22 16:39:38;;;;;;;;;;;;;;;;;;5012934;28;19921;-60